RYR159M EDDK-LEPA
Flight info
| Callsign | RYR159M |
|---|---|
| Flight time | 2h 8m |
| Altitude | 37000 |
| Route | NVO3F/13L NVO Y868 NAVAK Z283 SOPOK DCT ROUSY DCT GTQ DCT POGOL DCT LASAT DCT MOROK DCT GILIR DCT GEVEA DCT INCUS DCT BALSI DCT RETNO DCT TUPOX DCT MTG DCT DIVKO DCT VATIR DCT PIVUS DCT BODEQ DCT VERSO L129 LUNIK |
| Aircraft | B738/M-SDE3FGIJ1LRWYZ/SB1 |
Departure
| Time | 2026-05-04 15:14 |
|---|---|
| Airport | Cologne Bonn Airport (EDDK) |
Arrival
| Time | 2026-05-04 17:23 |
|---|---|
| Airport | Palma de Mallorca Airport (LEPA) |
| Time | Latitude | Longitude | Altitude | Speed | Heading |
|---|---|---|---|---|---|
| 2026-05-04 14:30 | 50.87833 | 7.12457 | 231 ft | 0 kts | 288° |
| 2026-05-04 15:02 | 50.87829 | 7.12476 | 231 ft | 4 kts | 294° |
| 2026-05-04 15:03 | 50.87815 | 7.12511 | 232 ft | 4 kts | 316° |
| 2026-05-04 15:03 | 50.87794 | 7.12535 | 231 ft | 4 kts | 342° |
| 2026-05-04 15:03 | 50.87768 | 7.12542 | 231 ft | 4 kts | 2° |
| 2026-05-04 15:03 | 50.87741 | 7.12537 | 233 ft | 4 kts | 14° |
| 2026-05-04 15:04 | 50.87716 | 7.12525 | 231 ft | 2 kts | 18° |
| 2026-05-04 15:04 | 50.87714 | 7.12524 | 231 ft | 0 kts | 18° |
| 2026-05-04 15:08 | 50.87715 | 7.12524 | 231 ft | 1 kts | 18° |
| 2026-05-04 15:08 | 50.87743 | 7.12545 | 232 ft | 9 kts | 36° |
| 2026-05-04 15:09 | 50.87769 | 7.12666 | 231 ft | 14 kts | 94° |
| 2026-05-04 15:09 | 50.87698 | 7.12804 | 231 ft | 19 kts | 138° |
| 2026-05-04 15:09 | 50.87591 | 7.12958 | 231 ft | 23 kts | 137° |
| 2026-05-04 15:10 | 50.87359 | 7.13293 | 231 ft | 22 kts | 137° |
| 2026-05-04 15:10 | 50.87248 | 7.13453 | 233 ft | 21 kts | 137° |
| 2026-05-04 15:10 | 50.87017 | 7.13787 | 242 ft | 24 kts | 137° |
| 2026-05-04 15:11 | 50.86923 | 7.13982 | 251 ft | 23 kts | 98° |
| 2026-05-04 15:11 | 50.86899 | 7.14224 | 255 ft | 22 kts | 99° |
| 2026-05-04 15:11 | 50.86875 | 7.14458 | 259 ft | 21 kts | 97° |
| 2026-05-04 15:11 | 50.86901 | 7.14682 | 261 ft | 21 kts | 65° |
| 2026-05-04 15:12 | 50.86961 | 7.14885 | 266 ft | 20 kts | 65° |
| 2026-05-04 15:12 | 50.87021 | 7.15081 | 271 ft | 19 kts | 64° |
| 2026-05-04 15:12 | 50.87079 | 7.15270 | 276 ft | 18 kts | 64° |
| 2026-05-04 15:12 | 50.87095 | 7.15412 | 280 ft | 13 kts | 127° |
| 2026-05-04 15:13 | 50.87016 | 7.15479 | 277 ft | 13 kts | 157° |
| 2026-05-04 15:13 | 50.86964 | 7.15499 | 277 ft | 5 kts | 204° |
| 2026-05-04 15:13 | 50.86931 | 7.15413 | 277 ft | 24 kts | 245° |
| 2026-05-04 15:13 | 50.86748 | 7.14809 | 267 ft | 97 kts | 244° |
| 2026-05-04 15:14 | 50.86364 | 7.13542 | 255 ft | 156 kts | 244° |
| 2026-05-04 15:14 | 50.85866 | 7.11907 | 827 ft | 166 kts | 244° |
| 2026-05-04 15:14 | 50.85362 | 7.10258 | 1652 ft | 167 kts | 243° |
| 2026-05-04 15:14 | 50.84858 | 7.08628 | 2429 ft | 163 kts | 242° |
| 2026-05-04 15:15 | 50.84353 | 7.06969 | 2912 ft | 173 kts | 244° |
| 2026-05-04 15:15 | 50.84061 | 7.05031 | 3306 ft | 192 kts | 262° |
| 2026-05-04 15:15 | 50.83962 | 7.02825 | 3675 ft | 207 kts | 263° |
| 2026-05-04 15:16 | 50.83778 | 6.98054 | 4388 ft | 228 kts | 264° |
| 2026-05-04 15:16 | 50.83678 | 6.95476 | 4727 ft | 241 kts | 264° |
| 2026-05-04 15:16 | 50.83444 | 6.89822 | 5493 ft | 267 kts | 264° |
| 2026-05-04 15:17 | 50.83321 | 6.86875 | 6165 ft | 270 kts | 264° |
| 2026-05-04 15:17 | 50.83056 | 6.80885 | 7616 ft | 277 kts | 263° |
| 2026-05-04 15:17 | 50.82918 | 6.77839 | 8378 ft | 279 kts | 264° |
| 2026-05-04 15:18 | 50.82779 | 6.74759 | 9177 ft | 283 kts | 263° |
| 2026-05-04 15:18 | 50.82632 | 6.71649 | 10007 ft | 286 kts | 263° |
| 2026-05-04 15:18 | 50.82482 | 6.68450 | 10493 ft | 301 kts | 263° |
| 2026-05-04 15:19 | 50.82204 | 6.61357 | 10981 ft | 342 kts | 268° |
| 2026-05-04 15:19 | 50.82247 | 6.57562 | 11603 ft | 348 kts | 270° |
| 2026-05-04 15:19 | 50.82394 | 6.49811 | 12986 ft | 355 kts | 271° |
| 2026-05-04 15:20 | 50.82464 | 6.45893 | 13729 ft | 358 kts | 270° |
| 2026-05-04 15:20 | 50.82528 | 6.41940 | 14331 ft | 362 kts | 270° |
| 2026-05-04 15:20 | 50.82582 | 6.37939 | 15000 ft | 365 kts | 270° |
| 2026-05-04 15:20 | 50.82629 | 6.34001 | 15741 ft | 367 kts | 270° |
| 2026-05-04 15:21 | 50.82675 | 6.29948 | 16523 ft | 371 kts | 269° |
| 2026-05-04 15:21 | 50.82720 | 6.25801 | 17286 ft | 374 kts | 269° |
| 2026-05-04 15:21 | 50.82808 | 6.17566 | 18620 ft | 380 kts | 269° |
| 2026-05-04 15:22 | 50.82847 | 6.13319 | 19225 ft | 382 kts | 268° |
| 2026-05-04 15:22 | 50.82885 | 6.09089 | 19794 ft | 386 kts | 269° |
| 2026-05-04 15:22 | 50.82949 | 6.00489 | 20888 ft | 393 kts | 267° |
| 2026-05-04 15:23 | 50.82702 | 5.96211 | 21413 ft | 392 kts | 251° |
| 2026-05-04 15:23 | 50.81480 | 5.92412 | 21904 ft | 389 kts | 229° |
| 2026-05-04 15:23 | 50.79506 | 5.89513 | 22504 ft | 388 kts | 213° |
| 2026-05-04 15:23 | 50.77092 | 5.87633 | 23102 ft | 388 kts | 198° |
| 2026-05-04 15:24 | 50.71707 | 5.87185 | 24038 ft | 396 kts | 175° |
| 2026-05-04 15:24 | 50.66196 | 5.88324 | 24809 ft | 402 kts | 174° |
| 2026-05-04 15:25 | 50.63417 | 5.88926 | 25256 ft | 404 kts | 174° |
| 2026-05-04 15:25 | 50.60623 | 5.89521 | 25694 ft | 405 kts | 174° |
| 2026-05-04 15:25 | 50.57821 | 5.90103 | 26113 ft | 407 kts | 175° |
| 2026-05-04 15:26 | 50.52181 | 5.91242 | 26853 ft | 411 kts | 175° |
| 2026-05-04 15:26 | 50.49335 | 5.91813 | 27196 ft | 413 kts | 175° |
| 2026-05-04 15:26 | 50.43610 | 5.92958 | 27914 ft | 417 kts | 175° |
| 2026-05-04 15:27 | 50.40725 | 5.93528 | 28264 ft | 418 kts | 175° |
| 2026-05-04 15:27 | 50.34928 | 5.94670 | 28921 ft | 421 kts | 175° |
| 2026-05-04 15:28 | 50.29085 | 5.95814 | 29638 ft | 425 kts | 175° |
| 2026-05-04 15:28 | 50.26147 | 5.96388 | 30065 ft | 426 kts | 175° |
| 2026-05-04 15:28 | 50.20321 | 5.97528 | 31131 ft | 417 kts | 175° |
| 2026-05-04 15:29 | 50.17448 | 5.98090 | 31533 ft | 415 kts | 176° |
| 2026-05-04 15:30 | 50.06005 | 6.00314 | 32937 ft | 412 kts | 176° |
| 2026-05-04 15:30 | 49.97567 | 6.01949 | 34075 ft | 407 kts | 176° |
| 2026-05-04 15:31 | 49.91940 | 6.03034 | 34466 ft | 410 kts | 176° |
| 2026-05-04 15:31 | 49.89103 | 6.03580 | 34667 ft | 411 kts | 176° |
| 2026-05-04 15:32 | 49.80596 | 6.05216 | 35324 ft | 412 kts | 176° |
| 2026-05-04 15:32 | 49.74890 | 6.06309 | 35781 ft | 412 kts | 176° |
| 2026-05-04 15:33 | 49.69194 | 6.07399 | 36184 ft | 414 kts | 176° |
| 2026-05-04 15:34 | 49.60600 | 6.09038 | 36790 ft | 415 kts | 176° |
| 2026-05-04 15:34 | 49.57726 | 6.09585 | 36977 ft | 417 kts | 176° |
| 2026-05-04 15:34 | 49.51956 | 6.10681 | 36988 ft | 417 kts | 176° |
| 2026-05-04 15:35 | 49.43361 | 6.11848 | 36999 ft | 410 kts | 180° |
| 2026-05-04 15:36 | 49.34827 | 6.12235 | 36990 ft | 408 kts | 181° |
| 2026-05-04 15:36 | 49.29157 | 6.12505 | 36994 ft | 407 kts | 181° |
| 2026-05-04 15:37 | 49.23490 | 6.12797 | 36994 ft | 408 kts | 180° |
| 2026-05-04 15:37 | 49.17812 | 6.13097 | 36994 ft | 409 kts | 180° |
| 2026-05-04 15:38 | 49.12114 | 6.13401 | 37002 ft | 411 kts | 180° |
| 2026-05-04 15:38 | 49.06383 | 6.13705 | 36997 ft | 413 kts | 180° |
| 2026-05-04 15:39 | 49.00635 | 6.14010 | 36996 ft | 414 kts | 180° |
| 2026-05-04 15:40 | 48.91961 | 6.14469 | 36999 ft | 417 kts | 180° |
| 2026-05-04 15:40 | 48.86206 | 6.14772 | 36989 ft | 417 kts | 180° |
| 2026-05-04 15:41 | 48.80408 | 6.15077 | 36995 ft | 417 kts | 180° |
| 2026-05-04 15:41 | 48.74612 | 6.15381 | 36996 ft | 417 kts | 180° |
| 2026-05-04 15:42 | 48.68805 | 6.15686 | 36995 ft | 417 kts | 180° |
| 2026-05-04 15:42 | 48.63007 | 6.15989 | 36992 ft | 417 kts | 180° |
| 2026-05-04 15:43 | 48.57218 | 6.16290 | 36992 ft | 416 kts | 181° |
| 2026-05-04 15:43 | 48.51461 | 6.16590 | 36993 ft | 415 kts | 180° |
| 2026-05-04 15:44 | 48.45690 | 6.16890 | 36995 ft | 414 kts | 181° |
| 2026-05-04 15:44 | 48.39931 | 6.17187 | 37000 ft | 414 kts | 181° |
| 2026-05-04 15:45 | 48.34170 | 6.17485 | 36992 ft | 414 kts | 181° |
| 2026-05-04 15:45 | 48.28424 | 6.17781 | 36992 ft | 413 kts | 181° |
| 2026-05-04 15:46 | 48.22693 | 6.18075 | 36993 ft | 412 kts | 181° |
| 2026-05-04 15:46 | 48.16971 | 6.18368 | 37004 ft | 411 kts | 181° |
| 2026-05-04 15:47 | 48.11251 | 6.18661 | 37007 ft | 411 kts | 181° |
| 2026-05-04 15:47 | 48.05525 | 6.18953 | 37006 ft | 412 kts | 181° |
| 2026-05-04 15:48 | 47.99795 | 6.19245 | 37019 ft | 412 kts | 181° |
| 2026-05-04 15:48 | 47.91190 | 6.19682 | 37025 ft | 413 kts | 181° |
| 2026-05-04 15:49 | 47.85446 | 6.19973 | 37021 ft | 413 kts | 181° |
| 2026-05-04 15:49 | 47.79686 | 6.20264 | 37021 ft | 414 kts | 181° |
| 2026-05-04 15:50 | 47.73916 | 6.20555 | 37021 ft | 416 kts | 181° |
| 2026-05-04 15:50 | 47.68134 | 6.20845 | 37019 ft | 416 kts | 181° |
| 2026-05-04 15:51 | 47.62346 | 6.21136 | 37016 ft | 417 kts | 181° |
| 2026-05-04 15:51 | 47.57479 | 6.21380 | 37033 ft | 418 kts | 181° |
| 2026-05-04 15:52 | 47.51662 | 6.21671 | 37029 ft | 419 kts | 181° |
| 2026-05-04 15:52 | 47.45870 | 6.21961 | 37030 ft | 420 kts | 181° |
| 2026-05-04 15:53 | 47.40033 | 6.22251 | 37021 ft | 420 kts | 182° |
| 2026-05-04 15:53 | 47.34192 | 6.22541 | 37029 ft | 419 kts | 182° |
| 2026-05-04 15:54 | 47.28368 | 6.22830 | 37031 ft | 418 kts | 182° |
| 2026-05-04 15:54 | 47.22557 | 6.23118 | 37026 ft | 418 kts | 182° |
| 2026-05-04 15:55 | 47.16751 | 6.23404 | 37030 ft | 417 kts | 182° |
| 2026-05-04 15:55 | 47.10960 | 6.23689 | 37032 ft | 416 kts | 182° |
| 2026-05-04 15:56 | 47.05186 | 6.23836 | 37030 ft | 413 kts | 188° |
| 2026-05-04 15:56 | 46.99491 | 6.22934 | 37032 ft | 410 kts | 191° |
| 2026-05-04 15:57 | 46.93827 | 6.21914 | 37034 ft | 411 kts | 191° |
| 2026-05-04 15:57 | 46.88146 | 6.20934 | 37045 ft | 411 kts | 190° |
| 2026-05-04 15:58 | 46.82468 | 6.19989 | 37045 ft | 411 kts | 190° |
| 2026-05-04 15:58 | 46.76787 | 6.19058 | 37054 ft | 412 kts | 191° |
| 2026-05-04 15:59 | 46.71086 | 6.18127 | 37061 ft | 413 kts | 191° |
| 2026-05-04 15:59 | 46.65365 | 6.17196 | 37070 ft | 414 kts | 191° |
| 2026-05-04 16:00 | 46.59625 | 6.16263 | 37056 ft | 416 kts | 191° |
| 2026-05-04 16:00 | 46.53876 | 6.15330 | 37061 ft | 415 kts | 191° |
| 2026-05-04 16:01 | 46.48130 | 6.14400 | 37078 ft | 416 kts | 191° |
| 2026-05-04 16:01 | 46.42373 | 6.13470 | 37058 ft | 417 kts | 191° |
| 2026-05-04 16:02 | 46.36619 | 6.12542 | 37050 ft | 415 kts | 191° |
| 2026-05-04 16:03 | 46.28024 | 6.11160 | 37049 ft | 414 kts | 191° |
| 2026-05-04 16:03 | 46.22306 | 6.10243 | 37042 ft | 413 kts | 191° |
| 2026-05-04 16:04 | 46.16607 | 6.09331 | 37048 ft | 411 kts | 191° |
| 2026-05-04 16:04 | 46.08078 | 6.07969 | 37049 ft | 411 kts | 191° |
| 2026-05-04 16:05 | 46.02404 | 6.07064 | 37048 ft | 410 kts | 191° |
| 2026-05-04 16:06 | 45.93901 | 6.05713 | 37034 ft | 410 kts | 191° |
| 2026-05-04 16:07 | 45.82629 | 6.03542 | 37060 ft | 406 kts | 198° |
| 2026-05-04 16:08 | 45.71660 | 5.99569 | 37044 ft | 408 kts | 198° |
| 2026-05-04 16:09 | 45.57873 | 5.94693 | 37046 ft | 412 kts | 198° |
| 2026-05-04 16:10 | 45.46737 | 5.90814 | 37038 ft | 411 kts | 198° |
| 2026-05-04 16:11 | 45.35581 | 5.86944 | 37022 ft | 411 kts | 198° |
| 2026-05-04 16:12 | 45.19031 | 5.81230 | 37005 ft | 406 kts | 198° |
| 2026-05-04 16:13 | 45.08068 | 5.77462 | 36996 ft | 405 kts | 198° |
| 2026-05-04 16:14 | 44.97207 | 5.73748 | 37013 ft | 398 kts | 198° |
| 2026-05-04 16:16 | 44.83554 | 5.69091 | 36974 ft | 405 kts | 198° |
| 2026-05-04 16:17 | 44.69936 | 5.64476 | 37016 ft | 401 kts | 198° |
| 2026-05-04 16:18 | 44.59097 | 5.60815 | 37014 ft | 401 kts | 198° |
| 2026-05-04 16:19 | 44.45530 | 5.56255 | 37046 ft | 398 kts | 198° |
| 2026-05-04 16:20 | 44.32009 | 5.51730 | 37026 ft | 401 kts | 198° |
| 2026-05-04 16:22 | 44.18497 | 5.47230 | 37008 ft | 402 kts | 198° |
| 2026-05-04 16:23 | 44.02202 | 5.41831 | 37015 ft | 400 kts | 198° |
| 2026-05-04 16:24 | 43.92036 | 5.36279 | 37010 ft | 391 kts | 212° |
| 2026-05-04 16:25 | 43.87247 | 5.32717 | 37019 ft | 389 kts | 211° |
| 2026-05-04 16:26 | 43.70638 | 5.20523 | 36968 ft | 389 kts | 211° |
| 2026-05-04 16:28 | 43.58702 | 5.11823 | 36995 ft | 388 kts | 211° |
| 2026-05-04 16:29 | 43.41934 | 4.99662 | 36987 ft | 390 kts | 211° |
| 2026-05-04 16:31 | 43.29919 | 4.90996 | 36979 ft | 389 kts | 211° |
| 2026-05-04 16:32 | 43.15573 | 4.80700 | 36952 ft | 387 kts | 211° |
| 2026-05-04 16:33 | 43.06036 | 4.73888 | 36937 ft | 386 kts | 211° |
| 2026-05-04 16:34 | 42.98902 | 4.68806 | 36940 ft | 385 kts | 211° |
| 2026-05-04 16:35 | 42.84658 | 4.58697 | 36928 ft | 386 kts | 211° |
| 2026-05-04 16:36 | 42.77499 | 4.53638 | 36938 ft | 388 kts | 211° |
| 2026-05-04 16:37 | 42.71114 | 4.49139 | 36944 ft | 389 kts | 211° |
| 2026-05-04 16:38 | 42.61465 | 4.42357 | 36922 ft | 391 kts | 211° |
| 2026-05-04 16:39 | 42.49374 | 4.33887 | 36918 ft | 390 kts | 211° |
| 2026-05-04 16:40 | 42.39753 | 4.27163 | 36926 ft | 389 kts | 211° |
| 2026-05-04 16:41 | 42.27777 | 4.18855 | 36928 ft | 384 kts | 211° |
| 2026-05-04 16:43 | 42.15825 | 4.10875 | 36894 ft | 387 kts | 202° |
| 2026-05-04 16:43 | 42.08121 | 4.07623 | 36891 ft | 386 kts | 203° |
| 2026-05-04 16:45 | 41.92696 | 4.01057 | 36910 ft | 389 kts | 203° |
| 2026-05-04 16:46 | 41.79746 | 3.95555 | 36906 ft | 391 kts | 202° |
| 2026-05-04 16:47 | 41.69337 | 3.91158 | 36895 ft | 393 kts | 202° |
| 2026-05-04 16:48 | 41.58908 | 3.86759 | 36909 ft | 393 kts | 203° |
| 2026-05-04 16:49 | 41.48608 | 3.82422 | 36366 ft | 378 kts | 203° |
| 2026-05-04 16:50 | 41.43671 | 3.80358 | 35687 ft | 368 kts | 203° |
| 2026-05-04 16:50 | 41.38834 | 3.78329 | 34943 ft | 362 kts | 203° |
| 2026-05-04 16:51 | 41.34076 | 3.76343 | 34218 ft | 355 kts | 202° |
| 2026-05-04 16:51 | 41.31728 | 3.75362 | 33860 ft | 353 kts | 202° |
| 2026-05-04 16:51 | 41.27083 | 3.73428 | 33081 ft | 346 kts | 202° |
| 2026-05-04 16:52 | 41.22537 | 3.71530 | 32379 ft | 339 kts | 202° |
| 2026-05-04 16:52 | 41.20292 | 3.70597 | 32019 ft | 337 kts | 202° |
| 2026-05-04 16:53 | 41.15888 | 3.68770 | 31348 ft | 331 kts | 202° |
| 2026-05-04 16:53 | 41.09380 | 3.66071 | 30357 ft | 322 kts | 202° |
| 2026-05-04 16:54 | 41.07244 | 3.65189 | 30013 ft | 320 kts | 202° |
| 2026-05-04 16:55 | 40.98909 | 3.61746 | 28669 ft | 307 kts | 203° |
| 2026-05-04 16:55 | 40.94858 | 3.60071 | 28001 ft | 304 kts | 203° |
| 2026-05-04 16:56 | 40.90725 | 3.58354 | 27353 ft | 322 kts | 202° |
| 2026-05-04 16:56 | 40.84339 | 3.55727 | 26448 ft | 314 kts | 203° |
| 2026-05-04 16:57 | 40.82261 | 3.54877 | 26117 ft | 311 kts | 203° |
| 2026-05-04 16:57 | 40.78150 | 3.53192 | 25451 ft | 307 kts | 203° |
| 2026-05-04 16:58 | 40.72079 | 3.50704 | 24465 ft | 303 kts | 203° |
| 2026-05-04 16:58 | 40.70072 | 3.49883 | 24140 ft | 301 kts | 203° |
| 2026-05-04 16:59 | 40.66076 | 3.48248 | 23486 ft | 300 kts | 203° |
| 2026-05-04 17:00 | 40.58201 | 3.45034 | 22092 ft | 296 kts | 202° |
| 2026-05-04 17:00 | 40.52214 | 3.42588 | 21137 ft | 311 kts | 202° |
| 2026-05-04 17:01 | 40.48066 | 3.40904 | 20436 ft | 311 kts | 202° |
| 2026-05-04 17:01 | 40.43938 | 3.39318 | 19744 ft | 310 kts | 193° |
| 2026-05-04 17:02 | 40.39547 | 3.39377 | 18954 ft | 317 kts | 183° |
| 2026-05-04 17:02 | 40.35142 | 3.39686 | 18270 ft | 316 kts | 182° |
| 2026-05-04 17:03 | 40.32953 | 3.39832 | 17910 ft | 315 kts | 182° |
| 2026-05-04 17:03 | 40.30770 | 3.39970 | 17559 ft | 313 kts | 182° |
| 2026-05-04 17:03 | 40.26453 | 3.40228 | 16900 ft | 309 kts | 182° |
| 2026-05-04 17:04 | 40.22183 | 3.40474 | 16241 ft | 305 kts | 182° |
| 2026-05-04 17:04 | 40.17958 | 3.40718 | 15554 ft | 303 kts | 182° |
| 2026-05-04 17:05 | 40.13762 | 3.40959 | 14933 ft | 300 kts | 182° |
| 2026-05-04 17:05 | 40.09618 | 3.41194 | 14322 ft | 297 kts | 182° |
| 2026-05-04 17:06 | 40.05516 | 3.41426 | 13732 ft | 293 kts | 182° |
| 2026-05-04 17:06 | 40.03484 | 3.41540 | 13405 ft | 292 kts | 182° |
| 2026-05-04 17:07 | 39.99472 | 3.41761 | 12778 ft | 289 kts | 182° |
| 2026-05-04 17:07 | 39.98120 | 3.41836 | 12555 ft | 288 kts | 182° |
| 2026-05-04 17:07 | 39.95451 | 3.41985 | 12102 ft | 287 kts | 182° |
| 2026-05-04 17:07 | 39.93459 | 3.42097 | 11806 ft | 285 kts | 182° |
| 2026-05-04 17:08 | 39.91485 | 3.42208 | 11517 ft | 283 kts | 182° |
| 2026-05-04 17:08 | 39.87571 | 3.42428 | 10896 ft | 281 kts | 182° |
| 2026-05-04 17:08 | 39.85624 | 3.42539 | 10594 ft | 280 kts | 182° |
| 2026-05-04 17:09 | 39.83685 | 3.42650 | 10361 ft | 276 kts | 182° |
| 2026-05-04 17:09 | 39.81792 | 3.42758 | 10217 ft | 269 kts | 182° |
| 2026-05-04 17:09 | 39.79940 | 3.42863 | 10040 ft | 264 kts | 183° |
| 2026-05-04 17:10 | 39.76276 | 3.43067 | 9469 ft | 263 kts | 183° |
| 2026-05-04 17:10 | 39.71248 | 3.41671 | 8560 ft | 247 kts | 229° |
| 2026-05-04 17:11 | 39.70316 | 3.39823 | 8292 ft | 245 kts | 246° |
| 2026-05-04 17:11 | 39.69924 | 3.37678 | 8045 ft | 245 kts | 260° |
| 2026-05-04 17:11 | 39.68202 | 3.34028 | 7407 ft | 245 kts | 224° |
| 2026-05-04 17:12 | 39.66932 | 3.32578 | 7219 ft | 240 kts | 222° |
| 2026-05-04 17:12 | 39.64446 | 3.29810 | 7070 ft | 231 kts | 222° |
| 2026-05-04 17:13 | 39.60687 | 3.25631 | 6426 ft | 237 kts | 222° |
| 2026-05-04 17:14 | 39.56977 | 3.21520 | 5682 ft | 231 kts | 222° |
| 2026-05-04 17:14 | 39.55762 | 3.20177 | 5422 ft | 227 kts | 223° |
| 2026-05-04 17:14 | 39.54730 | 3.16671 | 5007 ft | 217 kts | 282° |
| 2026-05-04 17:15 | 39.55515 | 3.15048 | 4976 ft | 223 kts | 314° |
| 2026-05-04 17:15 | 39.58120 | 3.12794 | 4968 ft | 225 kts | 322° |
| 2026-05-04 17:16 | 39.60805 | 3.10646 | 4956 ft | 227 kts | 322° |
| 2026-05-04 17:16 | 39.64442 | 3.07078 | 4270 ft | 210 kts | 294° |
| 2026-05-04 17:17 | 39.65001 | 3.05363 | 4006 ft | 205 kts | 283° |
| 2026-05-04 17:17 | 39.66227 | 3.00007 | 3192 ft | 205 kts | 266° |
| 2026-05-04 17:18 | 39.65812 | 2.98322 | 3042 ft | 194 kts | 238° |
| 2026-05-04 17:18 | 39.64591 | 2.95396 | 2967 ft | 175 kts | 239° |
| 2026-05-04 17:19 | 39.63316 | 2.92653 | 2895 ft | 177 kts | 238° |
| 2026-05-04 17:19 | 39.62069 | 2.90012 | 2487 ft | 166 kts | 238° |
| 2026-05-04 17:20 | 39.60903 | 2.87542 | 2036 ft | 155 kts | 237° |
| 2026-05-04 17:20 | 39.59791 | 2.85185 | 1635 ft | 146 kts | 238° |
| 2026-05-04 17:20 | 39.59287 | 2.84114 | 1442 ft | 134 kts | 238° |
| 2026-05-04 17:21 | 39.58283 | 2.81988 | 1099 ft | 146 kts | 237° |
| 2026-05-04 17:21 | 39.57254 | 2.79802 | 729 ft | 132 kts | 237° |
| 2026-05-04 17:22 | 39.56773 | 2.78780 | 529 ft | 132 kts | 237° |
| 2026-05-04 17:22 | 39.56309 | 2.77790 | 373 ft | 126 kts | 236° |
| 2026-05-04 17:23 | 39.55074 | 2.75176 | 36 ft | 104 kts | 238° |
| 2026-05-04 17:23 | 39.54813 | 2.74623 | 37 ft | 40 kts | 238° |
| 2026-05-04 17:23 | 39.54562 | 2.74048 | 37 ft | 14 kts | 258° |
| 2026-05-04 17:24 | 39.54554 | 2.73967 | 37 ft | 13 kts | 265° |
| 2026-05-04 17:24 | 39.54603 | 2.73753 | 36 ft | 9 kts | 34° |
| 2026-05-04 17:25 | 39.54641 | 2.73811 | 36 ft | 9 kts | 58° |
| 2026-05-04 17:25 | 39.54731 | 2.74002 | 36 ft | 15 kts | 58° |
| 2026-05-04 17:26 | 39.54872 | 2.74089 | 37 ft | 14 kts | 327° |
| 2026-05-04 17:26 | 39.55102 | 2.73908 | 37 ft | 12 kts | 329° |
| 2026-05-04 17:27 | 39.55168 | 2.73775 | 36 ft | 9 kts | 270° |
| 2026-05-04 17:27 | 39.55145 | 2.73624 | 36 ft | 9 kts | 238° |
| 2026-05-04 17:28 | 39.55083 | 2.73490 | 37 ft | 8 kts | 238° |
| 2026-05-04 17:29 | 39.54988 | 2.73390 | 35 ft | 4 kts | 165° |
| 2026-05-04 17:29 | 39.54983 | 2.73392 | 37 ft | 0 kts | 165° |